logo
Search for airport 
image banner adimage banner adimage banner ad
image banner ad

MMHLT - Torre Lomas

Located in Miguel Hidalgo, Mexico

ICAO - , IATA -

Data provided by Airmate  

General information

Coordinates: N19°25'43" W99°12'58"
Elevation is 7372 feet MSL.
Magnetic variation is 4° East
View others Airports in Distrito Federal

Operational data

Special qualification required
Current time UTC:
Current local time:
METAR: MMMX 022054Z 36008KT 7SM BKN020TCU 26/07 A3020 NOSIG RMK SLP032 57035 970 8/200 HZY DSNT CB SE
TAF: TAF MMMX 021720Z 0218/0318 06010KT P6SM SCT025 TX26/0221Z TN16/0312Z FM022100 12010KT P6SM BKN025 FM022300 VRB25KT 5SM TSRA BKN025CB OVC080 PROB40 0300/0303 3SM TSRA FM030300 00000KT P6SM SCT020 BKN080 TEMPO 0312/0316 BKN020
View NOTAMs / SUP AIP / TFR affecting this airport [VIEW]
Communications frequencies: [VIEW]

Runways:

Airport contact information

Address: Miguel Hidalgo Mexico

Satellite view of MMHLT